Latest Weather Observations for Little Bay

IDN60801

Issued at 2:05 am EDT Thursday 23 October 2014 (issued every 30 minutes, with the page automatically refreshed every 10 minutes)

About weather observations | Map of weather stations | Latest weather observations for NSW | Other Formats
Station Details ID: 066051 Name: LITTLE BAY (THE COAST GOLF CLUB) Lat: -33.98 Lon: 151.25 Height: 22.0 m
Data from the previous 72 hours. | See also: Recent months for locations in New South Wales
Date/Time
EDT
Temp
°C
App
Temp
°C
Dew
Point
Rel
Hum
%
Delta-T
°C
Wind Press
QNH
hPa
Press
MSL
hPa
Rain
since 9 am
mm
Dir
 
Spd
km/h
Gust
km/h
Spd
kts
Gust
kts
23/02:00am - - - - - N 9 13 5 7 - - -
23/01:30am - - - - - N 11 19 6 10 - - -
23/01:00am - - - - - N 17 24 9 13 - - -
23/12:30am - - - - - N 19 24 10 13 - - -
23/12:00am - - - - - N 19 26 10 14 - - -
 
Date/Time
EDT
Temp
°C
App
Temp
°C
Dew
Point
Rel
Hum
%
Delta-T
°C
Wind Press
QNH
hPa
Press
MSL
hPa
Rain
since 9 am
mm
Dir
 
Spd
km/h
Gust
km/h
Spd
kts
Gust
kts
22/11:30pm - - - - - N 19 30 10 16 - - -
22/11:00pm - - - - - N 19 28 10 15 - - -
22/10:30pm - - - - - NNE 26 35 14 19 - - -
22/10:00pm - - - - - NNE 26 35 14 19 - - -
22/09:30pm - - - - - NNE 26 35 14 19 - - -
22/09:00pm - - - - - NNE 26 35 14 19 - - -
22/08:30pm - - - - - NNE 28 41 15 22 - - -
22/08:00pm - - - - - NNE 28 39 15 21 - - -
22/07:30pm - - - - - NNE 32 41 17 22 - - -
22/07:00pm - - - - - NNE 30 41 16 22 - - -
22/06:30pm - - - - - NNE 32 43 17 23 - - -
22/06:00pm - - - - - NNE 32 41 17 22 - - -
22/05:30pm - - - - - NNE 30 41 16 22 - - -
22/05:00pm - - - - - NNE 30 39 16 21 - - -
22/04:30pm - - - - - NNE 30 37 16 20 - - -
22/04:00pm - - - - - NNE 30 37 16 20 - - -
22/03:30pm - - - - - NNE 32 41 17 22 - - -
22/03:00pm - - - - - NNE 30 37 16 20 - - -
22/02:30pm - - - - - NNE 28 35 15 19 - - -
22/02:00pm - - - - - NNE 26 33 14 18 - - -
22/01:30pm - - - - - NNE 26 33 14 18 - - -
22/01:00pm - - - - - NNE 24 32 13 17 - - -
22/12:30pm - - - - - NNE 24 32 13 17 - - -
22/12:00pm - - - - - NNE 22 32 12 17 - - -
22/11:30am - - - - - NNE 22 30 12 16 - - -
22/11:00am - - - - - NNE 24 33 13 18 - - -
22/10:30am - - - - - NE 20 28 11 15 - - -
22/10:00am - - - - - N 13 22 7 12 - - -
22/09:30am - - - - - N 13 19 7 10 - - -
22/09:00am - - - - - N 7 11 4 6 - - -
22/08:30am - - - - - NNW 7 15 4 8 - - -
22/08:00am - - - - - WNW 6 9 3 5 - - -
22/07:30am - - - - - WNW 6 9 3 5 - - -
22/07:00am - - - - - WNW 6 9 3 5 - - -
22/06:30am - - - - - WNW 6 7 3 4 - - -
22/06:00am - - - - - WNW 6 7 3 4 - - -
22/05:30am - - - - - WNW 6 6 3 3 - - -
22/05:00am - - - - - WNW 6 7 3 4 - - -
22/04:30am - - - - - WNW 6 7 3 4 - - -
22/04:00am - - - - - NW 4 7 2 4 - - -
22/03:30am - - - - - NNW 4 6 2 3 - - -
22/03:00am - - - - - N 6 9 3 5 - - -
22/02:30am - - - - - N 2 2 1 1 - - -
22/02:00am - - - - - NE 6 9 3 5 - - -
22/01:30am - - - - - NNW 6 13 3 7 - - -
22/01:00am - - - - - WNW 4 7 2 4 - - -
22/12:30am - - - - - NNW 4 6 2 3 - - -
22/12:00am - - - - - NNE 20 30 11 16 - - -
 
Date/Time
EDT
Temp
°C
App
Temp
°C
Dew
Point
Rel
Hum
%
Delta-T
°C
Wind Press
QNH
hPa
Press
MSL
hPa
Rain
since 9 am
mm
Dir
 
Spd
km/h
Gust
km/h
Spd
kts
Gust
kts
21/11:30pm - - - - - NNE 20 28 11 15 - - -
21/11:00pm - - - - - NNW 6 9 3 5 - - -
21/10:30pm - - - - - NNE 19 28 10 15 - - -
21/10:00pm - - - - - NNE 13 20 7 11 - - -
21/09:30pm - - - - - NE 15 26 8 14 - - -
21/09:00pm - - - - - NE 17 24 9 13 - - -
21/08:30pm - - - - - NE 17 22 9 12 - - -
21/08:00pm - - - - - NE 17 22 9 12 - - -
21/07:30pm - - - - - NE 15 20 8 11 - - -
21/07:00pm - - - - - ENE 15 20 8 11 - - -
21/06:30pm - - - - - NE 15 20 8 11 - - -
21/06:00pm - - - - - ENE 15 22 8 12 - - -
21/05:30pm - - - - - ENE 11 17 6 9 - - -
21/05:00pm - - - - - ENE 11 17 6 9 - - -
21/04:30pm - - - - - ENE 13 19 7 10 - - -
21/04:00pm - - - - - NE 11 15 6 8 - - -
21/03:30pm - - - - - ENE 11 17 6 9 - - -
21/03:00pm - - - - - ENE 13 19 7 10 - - -
21/02:30pm - - - - - ENE 13 19 7 10 - - -
21/02:00pm - - - - - ENE 13 17 7 9 - - -
21/01:30pm - - - - - ENE 13 20 7 11 - - -
21/01:00pm - - - - - ENE 13 20 7 11 - - -
21/12:30pm - - - - - E 15 20 8 11 - - -
21/12:00pm - - - - - E 19 24 10 13 - - -
21/11:30am - - - - - E 17 22 9 12 - - -
21/11:00am - - - - - E 17 20 9 11 - - -
21/10:30am - - - - - E 17 20 9 11 - - -
21/10:00am - - - - - E 15 20 8 11 - - -
21/09:30am - - - - - E 15 20 8 11 - - -
21/09:00am - - - - - E 15 22 8 12 - - -
21/08:30am - - - - - E 17 24 9 13 - - -
21/08:00am - - - - - E 17 22 9 12 - - -
21/07:30am - - - - - ESE 20 28 11 15 - - -
21/07:00am - - - - - SE 19 26 10 14 - - -
21/06:30am - - - - - ESE 15 22 8 12 - - -
21/06:00am - - - - - ESE 15 20 8 11 - - -
21/05:30am - - - - - ESE 11 17 6 9 - - -
21/05:00am - - - - - SE 11 15 6 8 - - -
21/04:30am - - - - - SSE 15 20 8 11 - - -
21/04:00am - - - - - SE 15 22 8 12 - - -
21/03:30am - - - - - ESE 17 20 9 11 - - -
21/03:00am - - - - - SE 17 28 9 15 - - -
21/02:30am - - - - - SE 19 30 10 16 - - -
21/02:00am - - - - - ESE 20 26 11 14 - - -
21/01:30am - - - - - ESE 19 26 10 14 - - -
21/01:00am - - - - - ESE 19 26 10 14 - - -
21/12:30am - - - - - ESE 19 26 10 14 - - -
21/12:00am - - - - - ESE 19 26 10 14 - - -
 
Date/Time
EDT
Temp
°C
App
Temp
°C
Dew
Point
Rel
Hum
%
Delta-T
°C
Wind Press
QNH
hPa
Press
MSL
hPa
Rain
since 9 am
mm
Dir
 
Spd
km/h
Gust
km/h
Spd
kts
Gust
kts
20/11:30pm - - - - - ESE 20 28 11 15 - - -
20/11:00pm - - - - - SSE 28 37 15 20 - - -
20/10:30pm - - - - - ESE 22 30 12 16 - - -
20/10:00pm - - - - - SE 20 26 11 14 - - -
20/09:30pm - - - - - SE 22 28 12 15 - - -
20/09:00pm - - - - - SE 22 32 12 17 - - -
20/08:30pm - - - - - SE 20 28 11 15 - - -
20/08:00pm - - - - - ESE 17 20 9 11 - - -
20/07:30pm - - - - - SE 20 26 11 14 - - -
20/07:00pm - - - - - SSE 22 37 12 20 - - -
20/06:30pm - - - - - SSE 22 30 12 16 - - -
20/06:00pm - - - - - SSE 26 33 14 18 - - -
20/05:30pm - - - - - S 22 32 12 17 - - -
20/05:00pm - - - - - SSE 26 35 14 19 - - -
20/04:30pm - - - - - S 22 33 12 18 - - -
20/04:00pm - - - - - SSE 26 37 14 20 - - -
20/03:30pm - - - - - S 26 33 14 18 - - -
20/03:00pm - - - - - S 22 33 12 18 - - -
20/02:30pm - - - - - S 28 39 15 21 - - -
20/02:00pm - - - - - SSE 28 35 15 19 - - -
20/01:30pm - - - - - S 24 33 13 18 - - -
20/01:00pm - - - - - S 30 41 16 22 - - -
20/12:30pm - - - - - S 24 37 13 20 - - -
20/12:00pm - - - - - S 30 41 16 22 - - -
20/11:30am - - - - - S 35 46 19 25 - - -
20/11:00am - - - - - S 35 50 19 27 - - -
20/10:30am - - - - - S 35 52 19 28 - - -
20/10:00am - - - - - S 43 56 23 30 - - -
20/09:39am - - - - - S 37 57 20 31 - - -
20/09:30am - - - - - S 39 56 21 30 - - -
20/09:00am - - - - - S 44 57 24 31 - - -
20/08:30am - - - - - S 44 61 24 33 - - -
20/08:10am - - - - - S 41 63 22 34 - - -
20/08:00am - - - - - S 44 59 24 32 - - -
20/07:30am - - - - - S 43 57 23 31 - - -
20/07:00am - - - - - S 46 65 25 35 - - -
20/06:30am - - - - - S 50 69 27 37 - - -
20/06:06am - - - - - S 52 70 28 38 - - -
20/06:00am - - - - - S 52 67 28 36 - - -
20/05:57am - - - - - S 56 67 30 36 - - -
20/05:46am - - - - - SSW 33 57 18 31 - - -
20/05:30am - - - - - WSW 20 43 11 23 - - -
20/05:00am - - - - - W 6 7 3 4 - - -
20/04:30am - - - - - CALM 0 0 0 0 - - -
20/04:00am - - - - - NW 9 15 5 8 - - -
20/03:30am - - - - - NNW 2 4 1 2 - - -
20/03:00am - - - - - NW 4 6 2 3 - - -
20/02:30am - - - - - NNW 7 9 4 5 - - -

Other Formats:

Comma delimited format used in spreadsheet applications
http://www.bom.gov.au/fwo/IDN60801/IDN60801.94780.axf

JavaScript Object Notation format (JSON) in row-major order
http://www.bom.gov.au/fwo/IDN60801/IDN60801.94780.json